Time;durP1;ratioP1;P1;durP2;ratioP2;P2;SDS_P1;SDS_P2;PMS_P1;PMS_P2;Temp;Humidity;BMP_temperature;BMP_pressure;BME280_temperature;BME280_humidity;BME280_pressure;Samples;Min_cycle;Max_cycle;Signal;HPM_P1;HPM_P2
2020/12/10 00:00:12;;;;;;;58.38;21.48;;;6.80;75.10;;;;;;5094123;28;20442;-69
2020/12/10 00:02:38;;;;;;;65.20;23.38;;;6.80;75.10;;;;;;5093240;28;20081;-68
2020/12/10 00:05:07;;;;;;;62.90;24.13;;;6.80;75.00;;;;;;5093796;28;20028;-68
2020/12/10 00:07:33;;;;;;;76.03;29.15;;;6.80;74.80;;;;;;5093680;28;20036;-68
2020/12/10 00:09:59;;;;;;;63.67;22.42;;;6.80;74.70;;;;;;5093249;28;20412;-69
2020/12/10 00:12:25;;;;;;;75.60;27.67;;;6.80;74.80;;;;;;5093935;28;20117;-68
2020/12/10 00:14:53;;;;;;;69.18;25.27;;;6.80;74.80;;;;;;5092999;28;20148;-68
2020/12/10 00:17:27;;;;;;;58.63;21.85;;;6.80;74.80;;;;;;5093637;28;20051;-68
2020/12/10 00:19:53;;;;;;;71.05;26.05;;;6.80;74.70;;;;;;5093634;28;20063;-68
2020/12/10 00:22:20;;;;;;;62.63;23.67;;;6.80;74.60;;;;;;5093119;28;20047;-68
2020/12/10 00:24:49;;;;;;;71.75;24.60;;;6.80;74.60;;;;;;5093643;28;20039;-68
2020/12/10 00:27:23;;;;;;;30.42;11.80;;;6.80;74.60;;;;;;5092869;28;20032;-68
2020/12/10 00:29:49;;;;;;;67.93;21.90;;;6.80;74.60;;;;;;5092774;28;20028;-68
2020/12/10 00:32:15;;;;;;;69.63;24.33;;;6.80;74.50;;;;;;5093364;28;20047;-68
2020/12/10 00:34:42;;;;;;;74.70;28.52;;;6.80;74.50;;;;;;5093419;28;20032;-68
2020/12/10 00:37:09;;;;;;;61.45;23.60;;;6.80;74.40;;;;;;5092730;28;20060;-68
2020/12/10 00:39:35;;;;;;;87.88;28.85;;;6.80;74.40;;;;;;5093409;28;20044;-68
2020/12/10 00:42:01;;;;;;;67.47;26.52;;;6.80;74.40;;;;;;5093412;28;20032;-68
2020/12/10 00:44:27;;;;;;;68.30;26.73;;;6.80;74.30;;;;;;5092574;28;20111;-68
2020/12/10 00:46:53;;;;;;;55.45;20.17;;;6.80;74.30;;;;;;5093433;28;20055;-68
2020/12/10 00:49:21;;;;;;;72.55;28.88;;;6.80;74.40;;;;;;5092066;28;20479;-68
2020/12/10 00:51:48;;;;;;;63.10;23.05;;;6.80;74.40;;;;;;5091453;28;20023;-69
2020/12/10 00:54:14;;;;;;;61.97;22.50;;;6.80;74.30;;;;;;5093438;28;20479;-68
2020/12/10 00:56:41;;;;;;;63.25;24.55;;;6.80;74.50;;;;;;5096406;28;20118;-68
2020/12/10 00:59:06;;;;;;;73.15;28.85;;;6.80;74.40;;;;;;5096583;28;20047;-68
2020/12/10 01:01:32;;;;;;;65.20;24.77;;;6.80;74.60;;;;;;5097152;28;20024;-68
2020/12/10 01:03:58;;;;;;;70.57;27.33;;;6.80;75.20;;;;;;5097082;28;20157;-68
2020/12/10 01:06:23;;;;;;;73.88;29.85;;;6.80;74.60;;;;;;5097092;28;20147;-68
2020/12/10 01:08:49;;;;;;;67.25;25.67;;;6.80;74.60;;;;;;5097278;28;20479;-68
2020/12/10 01:11:15;;;;;;;68.38;26.17;;;6.80;74.80;;;;;;5096519;28;20065;-68
2020/12/10 01:13:42;;;;;;;71.15;26.98;;;6.80;74.90;;;;;;5096941;28;20111;-68
2020/12/10 01:16:08;;;;;;;87.07;32.88;;;6.80;74.80;;;;;;5096981;28;20036;-68
2020/12/10 01:18:34;;;;;;;78.10;29.98;;;6.70;75.40;;;;;;5095924;28;20048;-68
2020/12/10 01:20:59;;;;;;;78.50;29.15;;;6.80;74.90;;;;;;5096867;28;20028;-68
2020/12/10 01:23:25;;;;;;;72.75;29.50;;;6.70;74.90;;;;;;5097009;28;20036;-68
2020/12/10 01:25:51;;;;;;;57.05;20.17;;;6.70;75.00;;;;;;5096256;28;20032;-68
2020/12/10 01:28:16;;;;;;;79.60;32.70;;;6.70;75.10;;;;;;5096905;28;20024;-68
2020/12/10 01:30:42;;;;;;;62.80;24.83;;;6.60;75.10;;;;;;5096837;28;20032;-68
2020/12/10 01:33:08;;;;;;;78.63;27.90;;;6.70;75.30;;;;;;5095921;28;20040;-69
2020/12/10 01:35:33;;;;;;;80.88;30.10;;;6.70;75.30;;;;;;5096554;28;20032;-68
2020/12/10 01:37:59;;;;;;;68.35;26.15;;;6.60;75.20;;;;;;5096723;28;20043;-68
2020/12/10 01:40:25;;;;;;;68.82;27.70;;;6.60;75.30;;;;;;5095705;28;20455;-68
2020/12/10 01:42:50;;;;;;;78.05;27.52;;;6.70;75.40;;;;;;5096325;28;20047;-68
2020/12/10 01:45:16;;;;;;;72.65;27.90;;;6.70;75.50;;;;;;5096334;28;20028;-68
2020/12/10 01:47:42;;;;;;;76.40;29.83;;;6.70;76.20;;;;;;5095780;28;20032;-69
2020/12/10 01:50:08;;;;;;;67.72;23.70;;;6.70;75.60;;;;;;5096320;28;20467;-68
2020/12/10 01:52:34;;;;;;;52.63;16.75;;;6.60;75.50;;;;;;5096381;28;20032;-68
2020/12/10 01:55:01;;;;;;;82.68;32.47;;;6.60;75.50;;;;;;5095529;28;20032;-68
2020/12/10 01:57:28;;;;;;;82.25;31.42;;;6.70;75.60;;;;;;5096229;28;20103;-68
2020/12/10 01:59:54;;;;;;;81.45;28.90;;;6.60;75.50;;;;;;5096064;28;20075;-68
2020/12/10 02:02:20;;;;;;;77.10;30.05;;;6.70;75.50;;;;;;5095602;28;20042;-69
2020/12/10 02:04:46;;;;;;;71.72;29.77;;;6.60;75.40;;;;;;5096287;28;20541;-68
2020/12/10 02:07:11;;;;;;;69.95;25.00;;;6.60;75.60;;;;;;5095465;28;20020;-68
2020/12/10 02:09:37;;;;;;;70.65;22.38;;;6.60;75.70;;;;;;5095455;28;20020;-68
2020/12/10 02:12:03;;;;;;;66.63;21.58;;;6.60;75.70;;;;;;5095889;28;20051;-68
2020/12/10 02:14:36;;;;;;;73.50;28.08;;;6.70;75.70;;;;;;5095011;28;20062;-68
2020/12/10 02:17:04;;;;;;;72.60;27.15;;;6.60;75.70;;;;;;5095806;28;20039;-68
2020/12/10 02:19:30;;;;;;;64.68;26.15;;;6.70;76.00;;;;;;5095925;28;20044;-68
2020/12/10 02:21:56;;;;;;;79.55;30.77;;;6.70;76.00;;;;;;5095201;28;20035;-68
2020/12/10 02:24:21;;;;;;;69.72;27.92;;;6.70;75.90;;;;;;5095675;28;20036;-68
2020/12/10 02:26:47;;;;;;;69.78;27.98;;;6.60;75.70;;;;;;5095468;28;20028;-68
2020/12/10 02:29:18;;;;;;;49.03;17.75;;;6.60;75.70;;;;;;5094967;28;20043;-68
2020/12/10 02:31:44;;;;;;;80.28;25.98;;;6.60;75.80;;;;;;5095491;28;20031;-68
2020/12/10 02:34:10;;;;;;;74.72;26.88;;;6.60;75.80;;;;;;5095582;28;20032;-68
2020/12/10 02:36:37;;;;;;;77.75;29.45;;;6.60;75.80;;;;;;5094806;28;20368;-68
2020/12/10 02:39:05;;;;;;;75.43;30.35;;;6.60;75.90;;;;;;5095452;28;20036;-68
2020/12/10 02:41:31;;;;;;;79.38;27.70;;;6.60;75.80;;;;;;5095184;28;20483;-68
2020/12/10 02:43:56;;;;;;;71.45;26.15;;;6.60;75.80;;;;;;5094379;28;20032;-68
2020/12/10 02:46:22;;;;;;;73.88;29.10;;;6.60;75.90;;;;;;5095375;28;20038;-68
2020/12/10 02:48:48;;;;;;;79.80;31.90;;;6.60;75.80;;;;;;5095282;28;20028;-68
2020/12/10 02:51:14;;;;;;;79.63;27.38;;;6.60;75.80;;;;;;5094524;28;20115;-68
2020/12/10 02:53:40;;;;;;;84.45;32.17;;;6.60;75.90;;;;;;5095228;28;20058;-68
2020/12/10 02:56:10;;;;;;;82.88;30.52;;;6.50;75.80;;;;;;5095158;28;20028;-68
2020/12/10 02:58:37;;;;;;;77.70;29.20;;;6.60;76.00;;;;;;5094366;28;20368;-68
2020/12/10 03:01:04;;;;;;;71.72;26.63;;;6.50;75.90;;;;;;5095188;28;20478;-68
2020/12/10 03:03:30;;;;;;;91.32;32.05;;;6.50;76.00;;;;;;5095019;28;20024;-68
2020/12/10 03:05:56;;;;;;;72.35;25.90;;;6.60;76.00;;;;;;5094505;28;20455;-68
2020/12/10 03:08:21;;;;;;;77.30;30.55;;;6.60;76.60;;;;;;5094787;28;20093;-68
2020/12/10 03:10:48;;;;;;;78.85;28.23;;;6.60;75.90;;;;;;5094138;28;20039;-68
2020/12/10 03:13:15;;;;;;;78.07;26.35;;;6.60;75.90;;;;;;5094879;28;20031;-68
2020/12/10 03:15:44;;;;;;;77.00;29.00;;;6.60;75.90;;;;;;5094578;28;20040;-68
2020/12/10 03:18:10;;;;;;;75.72;24.80;;;6.60;75.90;;;;;;5092997;28;20109;-69
2020/12/10 03:20:36;;;;;;;68.50;25.67;;;6.60;76.00;;;;;;5094550;28;20468;-68
2020/12/10 03:23:01;;;;;;;74.57;27.45;;;6.60;75.90;;;;;;5094477;28;20067;-68
2020/12/10 03:25:27;;;;;;;74.47;27.48;;;6.60;75.90;;;;;;5093693;28;20074;-68
2020/12/10 03:27:53;;;;;;;77.57;27.38;;;6.60;75.90;;;;;;5094556;28;20069;-68
2020/12/10 03:30:18;;;;;;;87.35;27.65;;;6.60;75.80;;;;;;5094600;28;20032;-68
2020/12/10 03:32:44;;;;;;;87.07;29.63;;;6.60;75.90;;;;;;5093534;28;20035;-68
2020/12/10 03:35:10;;;;;;;81.38;28.60;;;6.60;75.90;;;;;;5094287;28;20115;-68
2020/12/10 03:37:35;;;;;;;75.13;28.70;;;6.60;75.90;;;;;;5094417;28;20372;-68
2020/12/10 03:40:02;;;;;;;84.20;30.65;;;6.60;76.00;;;;;;5093361;28;20481;-68
2020/12/10 03:42:28;;;;;;;83.63;29.13;;;6.60;76.60;;;;;;5094204;28;20036;-68
2020/12/10 03:44:54;;;;;;;90.78;27.73;;;6.60;76.00;;;;;;5094111;28;20035;-68
2020/12/10 03:47:19;;;;;;;75.68;29.08;;;6.60;76.00;;;;;;5093434;28;20034;-68
2020/12/10 03:49:45;;;;;;;87.28;30.15;;;6.60;76.00;;;;;;5094108;28;20020;-68
2020/12/10 03:52:11;;;;;;;72.95;25.90;;;6.60;76.10;;;;;;5094060;28;20063;-68
2020/12/10 03:54:36;;;;;;;87.22;33.65;;;6.60;76.00;;;;;;5093178;28;20031;-68
2020/12/10 03:57:02;;;;;;;72.18;24.92;;;6.60;76.10;;;;;;5094177;28;20065;-68
2020/12/10 03:59:28;;;;;;;78.45;27.60;;;6.60;76.00;;;;;;5093856;28;20467;-68
2020/12/10 04:01:55;;;;;;;77.78;28.85;;;6.60;76.10;;;;;;5093383;28;20077;-69
2020/12/10 04:04:21;;;;;;;76.30;23.25;;;6.60;76.10;;;;;;5093996;28;20042;-68
2020/12/10 04:06:47;;;;;;;90.72;29.88;;;6.60;76.20;;;;;;5093923;28;20111;-68
2020/12/10 04:09:13;;;;;;;89.28;32.75;;;6.60;76.20;;;;;;5093028;28;20118;-68
2020/12/10 04:11:39;;;;;;;106.28;35.63;;;6.60;76.10;;;;;;5093947;28;20448;-68
2020/12/10 04:14:06;;;;;;;67.55;21.95;;;6.60;76.00;;;;;;5093156;28;20403;-68
2020/12/10 04:16:31;;;;;;;94.28;33.42;;;6.60;76.10;;;;;;5093906;28;20103;-68
2020/12/10 04:18:57;;;;;;;89.60;29.75;;;6.60;76.10;;;;;;5093437;28;20151;-68
2020/12/10 04:21:23;;;;;;;94.40;31.60;;;6.60;76.20;;;;;;5092930;28;20028;-68
2020/12/10 04:23:49;;;;;;;91.18;32.70;;;6.60;76.10;;;;;;5093583;28;20036;-68
2020/12/10 04:26:15;;;;;;;82.63;27.85;;;6.60;76.10;;;;;;5093774;28;20028;-68
2020/12/10 04:28:42;;;;;;;90.75;29.35;;;6.50;76.00;;;;;;5092990;28;20039;-68
2020/12/10 04:31:08;;;;;;;77.43;25.08;;;6.50;76.00;;;;;;5093431;28;20391;-68
2020/12/10 04:33:33;;;;;;;80.35;29.23;;;6.50;76.20;;;;;;5093446;28;20024;-68
2020/12/10 04:35:59;;;;;;;82.85;28.92;;;6.50;76.00;;;;;;5092828;28;20020;-68
2020/12/10 04:38:25;;;;;;;75.85;28.05;;;6.50;76.10;;;;;;5093613;28;20039;-68
2020/12/10 04:40:51;;;;;;;87.95;31.52;;;6.50;76.00;;;;;;5093423;28;20413;-68
2020/12/10 04:43:25;;;;;;;90.40;29.50;;;6.50;76.60;;;;;;5092759;28;20379;-68
2020/12/10 04:45:57;;;;;;;80.25;28.52;;;6.60;76.00;;;;;;5093602;28;20103;-68
2020/12/10 04:48:26;;;;;;;80.32;29.33;;;6.60;75.90;;;;;;5093332;28;20032;-68
2020/12/10 04:50:54;;;;;;;83.40;29.48;;;6.60;76.50;;;;;;5092873;28;20115;-68
2020/12/10 04:53:20;;;;;;;74.60;25.00;;;6.60;75.90;;;;;;5093364;28;20440;-68
2020/12/10 04:55:47;;;;;;;64.82;21.90;;;6.50;75.90;;;;;;5093485;28;20040;-68
2020/12/10 04:58:12;;;;;;;95.85;32.17;;;6.60;75.90;;;;;;5092734;28;20039;-68
2020/12/10 05:00:38;;;;;;;84.75;26.05;;;6.60;75.90;;;;;;5093297;28;20085;-68
2020/12/10 05:03:03;;;;;;;78.93;26.48;;;6.60;76.00;;;;;;5093121;28;20031;-68
2020/12/10 05:05:32;;;;;;;72.10;25.60;;;6.60;75.90;;;;;;5092417;28;20463;-68
2020/12/10 05:07:59;;;;;;;54.85;19.30;;;6.60;75.90;;;;;;5093261;28;20020;-68
2020/12/10 05:10:25;;;;;;;81.22;29.02;;;6.60;75.90;;;;;;5092610;28;20036;-68
2020/12/10 05:13:00;;;;;;;91.35;31.05;;;6.60;75.90;;;;;;5093190;28;20031;-68
2020/12/10 05:15:33;;;;;;;85.32;29.35;;;6.60;76.50;;;;;;5093069;28;20387;-68
2020/12/10 05:18:10;;;;;;;76.88;26.67;;;6.60;76.00;;;;;;5092274;28;20052;-68
2020/12/10 05:20:55;;;;;;;83.28;28.85;;;6.60;75.90;;;;;;5093064;28;20081;-68
2020/12/10 05:23:40;;;;;;;78.13;27.40;;;6.60;75.90;;;;;;5093241;28;20070;-68
2020/12/10 05:26:08;;;;;;;76.80;27.67;;;6.60;75.80;;;;;;5092332;28;20040;-68
2020/12/10 05:28:44;;;;;;;66.63;24.25;;;6.50;75.80;;;;;;5092896;28;20097;-68
2020/12/10 05:31:21;;;;;;;69.95;25.65;;;6.50;75.80;;;;;;5093263;28;20032;-68
2020/12/10 05:33:53;;;;;;;77.32;25.02;;;6.50;75.90;;;;;;5093170;28;20032;-68
2020/12/10 05:36:19;;;;;;;55.10;18.17;;;6.50;75.90;;;;;;5093013;28;20031;-68
2020/12/10 05:39:03;;;;;;;79.22;29.52;;;6.50;75.90;;;;;;5091925;28;20063;-68
2020/12/10 05:41:30;;;;;;;;;;;6.50;75.90;;;;;;5093898;28;20052;-68
2020/12/10 05:43:55;;;;;;;82.45;28.42;;;6.50;75.90;;;;;;5096303;28;20388;-68
2020/12/10 05:46:23;;;;;;;81.68;28.45;;;6.50;75.60;;;;;;5095636;28;20114;-68
2020/12/10 05:48:50;;;;;;;72.90;24.55;;;6.60;75.70;;;;;;5096538;28;20098;-68
2020/12/10 05:51:21;;;;;;;89.88;29.27;;;6.50;75.80;;;;;;5096530;28;20028;-68
2020/12/10 05:53:48;;;;;;;77.63;27.88;;;6.50;75.80;;;;;;5095810;28;20032;-68
2020/12/10 05:56:16;;;;;;;66.65;24.13;;;6.50;75.80;;;;;;5096385;28;20052;-69
2020/12/10 05:58:47;;;;;;;75.72;27.50;;;6.50;75.80;;;;;;5096230;28;20059;-68
2020/12/10 06:01:27;;;;;;;62.60;21.02;;;6.50;75.80;;;;;;5095364;28;20478;-68
2020/12/10 06:03:54;;;;;;;73.32;22.90;;;6.50;75.90;;;;;;5096376;28;20480;-68
2020/12/10 06:06:20;;;;;;;75.15;27.45;;;6.60;75.90;;;;;;5096017;28;20032;-68
2020/12/10 06:08:49;;;;;;;67.38;23.20;;;6.60;75.80;;;;;;5095254;28;20043;-68
2020/12/10 06:11:23;;;;;;;52.88;17.77;;;6.50;75.90;;;;;;5096177;28;20035;-67
2020/12/10 06:13:58;;;;;;;63.40;21.85;;;6.70;76.00;;;;;;5095058;28;20034;-71
2020/12/10 06:16:23;;;;;;;78.88;21.25;;;6.60;76.70;;;;;;5096039;28;20433;-68
2020/12/10 06:19:01;;;;;;;45.78;14.85;;;6.60;76.30;;;;;;5095120;28;20063;-67
2020/12/10 06:21:34;;;;;;;59.03;22.25;;;6.60;76.60;;;;;;5093565;28;20421;-68
2020/12/10 06:23:59;;;;;;;68.72;23.58;;;6.60;76.60;;;;;;5092461;28;20031;-69
2020/12/10 06:26:25;;;;;;;34.70;10.20;;;6.60;76.60;;;;;;5094712;28;20028;-69
2020/12/10 06:29:11;;;;;;;58.38;19.25;;;6.60;76.70;;;;;;5093513;28;20032;-69
2020/12/10 06:32:04;;;;;;;54.55;19.23;;;6.60;76.80;;;;;;5093537;28;20028;-69
2020/12/10 06:34:44;;;;;;;76.10;26.85;;;6.60;76.80;;;;;;5092441;28;20429;-69
2020/12/10 06:37:16;;;;;;;52.67;17.95;;;6.60;76.60;;;;;;5092552;28;20024;-68
2020/12/10 06:39:42;;;;;;;85.53;28.58;;;6.70;76.70;;;;;;5093822;28;20040;-69
2020/12/10 06:42:08;;;;;;;76.50;28.23;;;6.70;76.40;;;;;;5093238;28;20026;-68
2020/12/10 06:44:35;;;;;;;78.35;29.10;;;6.70;76.20;;;;;;5093790;28;20042;-68
2020/12/10 06:47:02;;;;;;;80.93;27.17;;;6.70;76.00;;;;;;5094760;28;20031;-67
2020/12/10 06:49:30;;;;;;;59.88;20.95;;;6.70;75.80;;;;;;5093052;28;20035;-67
2020/12/10 06:52:14;;;;;;;69.18;25.02;;;6.60;75.80;;;;;;5093643;28;20030;-67
2020/12/10 06:55:03;;;;;;;78.93;27.58;;;6.60;75.90;;;;;;5091113;28;20475;-67
2020/12/10 06:57:48;;;;;;;69.38;22.88;;;6.70;75.80;;;;;;5091651;28;20035;-67
2020/12/10 07:00:38;;;;;;;63.28;23.83;;;6.70;75.70;;;;;;5092613;28;20487;-67
2020/12/10 07:03:20;;;;;;;73.68;22.80;;;6.60;75.60;;;;;;5091049;28;20051;-67
2020/12/10 07:05:46;;;;;;;77.63;25.95;;;6.60;75.50;;;;;;5094744;28;20462;-67
2020/12/10 07:08:14;;;;;;;73.03;22.90;;;6.60;75.50;;;;;;5093118;28;20081;-68
2020/12/10 07:10:42;;;;;;;64.55;20.70;;;6.60;75.60;;;;;;5094262;28;20025;-70
2020/12/10 07:13:08;;;;;;;68.35;21.15;;;6.60;75.60;;;;;;5094623;28;20028;-69
2020/12/10 07:15:35;;;;;;;65.13;24.65;;;6.60;75.70;;;;;;5094862;28;20043;-68
2020/12/10 07:18:02;;;;;;;65.28;20.70;;;6.60;75.70;;;;;;5093540;28;20040;-69
2020/12/10 07:20:28;;;;;;;68.88;23.92;;;6.60;75.60;;;;;;5092638;28;20084;-68
2020/12/10 07:22:55;;;;;;;60.42;19.13;;;6.60;75.50;;;;;;5092562;28;20024;-69
2020/12/10 07:25:21;;;;;;;72.07;25.13;;;6.60;75.60;;;;;;5092559;28;20125;-69
2020/12/10 07:27:47;;;;;;;76.20;25.75;;;6.60;75.50;;;;;;5092778;28;20161;-69
2020/12/10 07:30:14;;;;;;;72.22;25.15;;;6.60;75.60;;;;;;5093146;28;20123;-68
2020/12/10 07:32:40;;;;;;;52.78;17.85;;;6.60;75.60;;;;;;5092179;28;20024;-69
2020/12/10 07:35:07;;;;;;;69.82;23.75;;;6.60;75.70;;;;;;5092771;28;20047;-68
2020/12/10 07:37:33;;;;;;;76.45;26.90;;;6.60;75.70;;;;;;5092956;28;20104;-68
2020/12/10 07:40:12;;;;;;;79.97;29.27;;;6.70;75.70;;;;;;5091638;28;20028;-68
2020/12/10 07:42:38;;;;;;;89.75;25.10;;;6.60;75.50;;;;;;5090667;28;20036;-68
2020/12/10 07:45:18;;;;;;;75.95;23.77;;;6.60;75.50;;;;;;5092998;28;20035;-69
2020/12/10 07:47:56;;;;;;;62.28;26.60;;;6.60;75.50;;;;;;5088568;28;20058;-68
2020/12/10 07:50:25;;;;;;;83.07;27.63;;;6.70;75.50;;;;;;5093532;28;20428;-68
2020/12/10 07:52:54;;;;;;;78.50;27.80;;;6.60;75.60;;;;;;5093043;28;20077;-68
2020/12/10 07:55:22;;;;;;;74.35;26.85;;;6.60;75.60;;;;;;5093971;28;20032;-68
2020/12/10 07:57:58;;;;;;;74.65;26.73;;;6.60;75.60;;;;;;5093674;28;20385;-68
2020/12/10 08:00:26;;;;;;;54.05;16.55;;;6.60;75.50;;;;;;5093302;28;20028;-68
2020/12/10 08:03:20;;;;;;;68.82;24.00;;;6.50;75.70;;;;;;5093427;28;20032;-68
2020/12/10 08:06:14;;;;;;;73.28;25.00;;;6.60;75.70;;;;;;5093261;28;20084;-68
2020/12/10 08:08:47;;;;;;;69.85;24.45;;;6.60;75.60;;;;;;5092747;28;20501;-68
2020/12/10 08:11:15;;;;;;;66.90;19.98;;;6.50;75.50;;;;;;5093650;28;20127;-68
2020/12/10 08:13:58;;;;;;;63.05;22.17;;;6.50;75.50;;;;;;5092817;28;20024;-68
2020/12/10 08:16:34;;;;;;;73.82;26.58;;;6.50;75.60;;;;;;5093838;28;20031;-68
2020/12/10 08:19:10;;;;;;;73.93;24.10;;;6.50;75.50;;;;;;5093125;28;20059;-68
2020/12/10 08:21:36;;;;;;;69.22;23.40;;;6.50;75.50;;;;;;5093019;28;20031;-68
2020/12/10 08:24:01;;;;;;;42.95;15.18;;;6.50;75.70;;;;;;5093410;28;20062;-68
2020/12/10 08:26:27;;;;;;;64.03;20.50;;;6.50;75.90;;;;;;5093594;28;20024;-69
2020/12/10 08:28:57;;;;;;;67.28;22.98;;;6.60;76.10;;;;;;5092859;28;20039;-68
2020/12/10 08:31:24;;;;;;;85.22;30.20;;;6.50;75.90;;;;;;5093175;28;20038;-68
2020/12/10 08:33:51;;;;;;;85.22;27.38;;;6.50;75.90;;;;;;5093615;28;20036;-68
2020/12/10 08:36:27;;;;;;;71.05;22.83;;;6.50;75.70;;;;;;5092656;28;20509;-74
2020/12/10 08:38:53;;;;;;;77.25;23.58;;;6.60;76.10;;;;;;5093143;28;20551;-70
2020/12/10 08:41:34;;;;;;;63.75;21.15;;;6.60;76.00;;;;;;5092766;28;20036;-68
2020/12/10 08:44:02;;;;;;;88.10;28.13;;;6.50;76.00;;;;;;5093267;28;20085;-69
2020/12/10 08:46:29;;;;;;;67.35;23.40;;;6.50;75.80;;;;;;5093387;28;20028;-69
2020/12/10 08:48:56;;;;;;;78.30;25.30;;;6.60;75.80;;;;;;5109129;28;20023;-69
2020/12/10 08:51:37;;;;;;;75.47;24.58;;;6.50;76.40;;;;;;5113574;28;20364;-69
2020/12/10 08:54:04;;;;;;;59.22;23.83;;;6.60;75.70;;;;;;5113501;28;20039;-69
2020/12/10 08:56:35;;;;;;;75.13;25.73;;;6.60;75.70;;;;;;5112959;28;20036;-69
2020/12/10 08:59:01;;;;;;;56.30;18.60;;;6.60;75.70;;;;;;5113662;28;20031;-69
2020/12/10 09:01:27;;;;;;;77.53;26.25;;;6.60;75.80;;;;;;5113389;28;20359;-69
2020/12/10 09:03:52;;;;;;;64.03;21.58;;;6.60;75.80;;;;;;5112944;28;20112;-69
2020/12/10 09:06:18;;;;;;;73.10;22.38;;;6.60;75.70;;;;;;5113042;28;20076;-69
2020/12/10 09:08:43;;;;;;;57.78;19.33;;;6.60;75.70;;;;;;5092498;28;20035;-81
2020/12/10 09:11:09;;;;;;;69.15;24.65;;;6.60;75.90;;;;;;5091103;28;20047;-69
2020/12/10 09:13:35;;;;;;;72.60;21.90;;;6.60;75.80;;;;;;5091715;28;20387;-68
2020/12/10 09:16:01;;;;;;;66.15;21.63;;;6.60;76.40;;;;;;5092276;28;20028;-69
2020/12/10 09:18:26;;;;;;;73.35;23.02;;;6.60;75.90;;;;;;5095638;28;20051;-69
2020/12/10 09:20:55;;;;;;;70.18;24.13;;;6.60;75.90;;;;;;5089585;28;20032;-69
2020/12/10 09:23:20;;;;;;;76.18;23.92;;;6.70;75.80;;;;;;5094781;28;20497;-70
2020/12/10 09:25:46;;;;;;;56.05;19.92;;;6.70;75.80;;;;;;5094809;28;20031;-70
2020/12/10 09:28:11;;;;;;;48.15;16.20;;;6.70;75.80;;;;;;5095140;28;20115;-70
2020/12/10 09:30:38;;;;;;;76.18;19.10;;;6.70;75.90;;;;;;5094760;28;20039;-69
2020/12/10 09:33:04;;;;;;;69.75;23.15;;;6.70;75.80;;;;;;5095439;28;20390;-69
2020/12/10 09:35:32;;;;;;;71.35;21.75;;;6.80;75.70;;;;;;5095320;28;20024;-70
2020/12/10 09:38:01;;;;;;;72.15;26.33;;;6.80;75.60;;;;;;5091813;28;20063;-69
2020/12/10 09:40:27;;;;;;;78.05;27.35;;;6.80;75.40;;;;;;5095331;28;20040;-69
2020/12/10 09:42:52;;;;;;;64.47;21.95;;;6.80;75.30;;;;;;5095946;28;20028;-68
2020/12/10 09:45:18;;;;;;;59.55;21.60;;;6.80;75.20;;;;;;5095622;28;20024;-69
2020/12/10 09:47:47;;;;;;;81.53;26.63;;;6.80;75.20;;;;;;5095931;28;20034;-68
2020/12/10 09:50:20;;;;;;;59.45;21.55;;;6.80;75.20;;;;;;5095872;28;20032;-68
2020/12/10 09:58:05;;;;;;;71.00;22.58;;;6.80;75.10;;;;;;5096144;28;20035;-68
2020/12/10 10:00:31;;;;;;;65.18;20.95;;;6.90;75.00;;;;;;5095433;28;20028;-69
2020/12/10 10:02:57;;;;;;;71.50;22.17;;;6.80;74.90;;;;;;5096022;28;20024;-69
2020/12/10 10:05:23;;;;;;;73.35;22.70;;;6.90;75.00;;;;;;5095607;28;20056;-69
2020/12/10 10:07:48;;;;;;;85.85;25.83;;;6.90;74.90;;;;;;5095438;28;20028;-68
2020/12/10 10:10:14;;;;;;;75.10;25.65;;;6.90;74.90;;;;;;5096031;28;20028;-69
2020/12/10 10:12:40;;;;;;;89.05;25.30;;;6.90;74.90;;;;;;5094970;28;20387;-70
2020/12/10 10:15:05;;;;;;;83.40;26.17;;;6.90;74.90;;;;;;5095733;28;20032;-69
2020/12/10 10:17:31;;;;;;;78.75;24.83;;;6.90;74.90;;;;;;5095522;28;20047;-70
2020/12/10 10:19:57;;;;;;;80.57;26.33;;;6.90;74.90;;;;;;5094540;28;20610;-70
2020/12/10 10:22:25;;;;;;;73.03;24.67;;;6.90;74.90;;;;;;5095665;28;20053;-69
2020/12/10 10:24:50;;;;;;;67.72;21.33;;;6.90;74.90;;;;;;5095671;28;20040;-69
2020/12/10 10:27:16;;;;;;;66.30;22.35;;;6.90;74.80;;;;;;5094506;28;20028;-68
2020/12/10 10:29:41;;;;;;;70.97;23.80;;;6.90;74.90;;;;;;5095470;28;20031;-69
2020/12/10 10:32:07;;;;;;;66.78;22.60;;;6.90;74.90;;;;;;5095330;28;20395;-69
2020/12/10 10:34:33;;;;;;;64.28;20.90;;;6.90;74.90;;;;;;5094060;28;20073;-70
2020/12/10 10:36:58;;;;;;;61.65;19.65;;;6.90;75.20;;;;;;5095209;28;20024;-69
2020/12/10 10:39:24;;;;;;;74.55;24.33;;;6.90;75.30;;;;;;5095312;28;20040;-70
2020/12/10 10:41:50;;;;;;;74.22;23.60;;;6.90;75.20;;;;;;5094769;28;20028;-69
2020/12/10 10:44:16;;;;;;;64.55;22.65;;;6.90;75.10;;;;;;5095402;28;20134;-70
2020/12/10 10:46:42;;;;;;;56.53;20.15;;;6.90;75.00;;;;;;5094992;28;20077;-69
2020/12/10 10:49:08;;;;;;;65.93;22.50;;;6.90;75.00;;;;;;5093830;28;20036;-69
2020/12/10 10:51:34;;;;;;;68.43;22.23;;;7.00;74.90;;;;;;5095090;28;20119;-71
2020/12/10 10:54:00;;;;;;;60.40;20.92;;;6.90;74.90;;;;;;5095095;28;20028;-70
2020/12/10 10:56:26;;;;;;;59.35;21.00;;;7.00;74.80;;;;;;5094230;28;20035;-70
2020/12/10 10:58:52;;;;;;;57.63;21.73;;;6.90;74.60;;;;;;5094690;28;20122;-71
2020/12/10 11:01:25;;;;;;;64.57;21.23;;;6.90;74.60;;;;;;5094998;28;20042;-70
2020/12/10 11:03:51;;;;;;;64.43;22.38;;;6.90;74.60;;;;;;5094349;28;20371;-69
2020/12/10 11:06:17;;;;;;;55.88;19.25;;;6.90;74.60;;;;;;5094863;28;20044;-71
2020/12/10 11:08:42;;;;;;;59.65;19.35;;;6.90;74.70;;;;;;5094961;28;20024;-71
2020/12/10 11:11:08;;;;;;;57.72;21.55;;;7.00;74.70;;;;;;5093764;28;20395;-70
2020/12/10 11:13:34;;;;;;;63.13;21.05;;;7.00;74.70;;;;;;5094811;28;20035;-70
2020/12/10 11:16:00;;;;;;;69.15;23.60;;;7.00;74.80;;;;;;5093768;28;20106;-70
2020/12/10 11:18:25;;;;;;;59.78;22.10;;;6.90;74.60;;;;;;5094028;28;20562;-70
2020/12/10 11:20:51;;;;;;;70.10;20.80;;;6.90;74.60;;;;;;5094533;28;20106;-70
2020/12/10 11:23:17;;;;;;;65.35;21.05;;;7.00;74.70;;;;;;5093859;28;20036;-69
2020/12/10 11:25:42;;;;;;;51.13;16.92;;;7.00;74.90;;;;;;5094462;28;20035;-70
2020/12/10 11:28:08;;;;;;;62.58;20.17;;;6.90;74.90;;;;;;5094413;28;20055;-70
2020/12/10 11:30:34;;;;;;;61.63;22.40;;;7.00;75.00;;;;;;5093276;28;20050;-70
2020/12/10 11:32:59;;;;;;;62.50;19.70;;;7.00;74.90;;;;;;5093838;28;20032;-74
2020/12/10 11:35:25;;;;;;;62.03;21.85;;;7.00;75.00;;;;;;5091461;28;20039;-70
2020/12/10 11:37:55;;;;;;;54.33;20.75;;;7.00;74.90;;;;;;5091059;28;20032;-70
2020/12/10 11:40:24;;;;;;;42.63;15.05;;;7.00;74.80;;;;;;5108614;28;20039;-70
2020/12/10 11:42:50;;;;;;;53.45;20.48;;;7.00;75.00;;;;;;5096828;28;20394;-71
2020/12/10 11:45:16;;;;;;;62.53;24.40;;;7.00;75.00;;;;;;5092760;28;20066;-69
2020/12/10 11:47:42;;;;;;;53.67;21.70;;;7.00;75.00;;;;;;5093875;28;20065;-72
2020/12/10 11:50:08;;;;;;;70.90;24.40;;;7.00;74.80;;;;;;5093616;28;20060;-71
2020/12/10 11:52:33;;;;;;;57.22;19.70;;;7.00;74.90;;;;;;5093240;28;20028;-71
2020/12/10 11:54:59;;;;;;;56.65;20.77;;;7.00;74.80;;;;;;5093682;28;20024;-71
2020/12/10 11:57:26;;;;;;;49.50;19.08;;;7.00;74.70;;;;;;5093618;28;20399;-71
2020/12/10 11:59:52;;;;;;;21.63;7.95;;;6.90;74.60;;;;;;5092874;28;20048;-71
2020/12/10 12:02:17;;;;;;;60.17;19.02;;;7.00;75.00;;;;;;5093750;28;20027;-70
2020/12/10 12:04:43;;;;;;;52.47;18.73;;;7.00;75.10;;;;;;5093678;28;20036;-70
2020/12/10 12:07:08;;;;;;;62.30;22.65;;;7.00;75.30;;;;;;5092777;28;20031;-70
2020/12/10 12:09:34;;;;;;;59.75;17.63;;;7.00;75.30;;;;;;5093858;28;20020;-70
2020/12/10 12:12:01;;;;;;;46.85;17.83;;;7.00;75.10;;;;;;5093508;28;20390;-70
2020/12/10 12:14:27;;;;;;;60.72;19.85;;;7.00;75.40;;;;;;5092462;28;20118;-69
2020/12/10 12:16:52;;;;;;;45.65;16.85;;;7.00;75.50;;;;;;5090874;28;20062;-69
2020/12/10 12:19:18;;;;;;;58.47;18.17;;;7.00;75.50;;;;;;5092320;28;20048;-72
2020/12/10 12:21:44;;;;;;;58.53;21.50;;;7.00;75.50;;;;;;5093346;28;20020;-68
2020/12/10 12:24:10;;;;;;;61.33;22.70;;;7.00;75.50;;;;;;5093459;28;20479;-69
2020/12/10 12:26:36;;;;;;;58.53;22.98;;;7.10;75.40;;;;;;5091774;28;20023;-69
2020/12/10 12:29:02;;;;;;;63.53;23.65;;;7.00;75.30;;;;;;5093170;28;20115;-69
2020/12/10 12:31:32;;;;;;;53.47;18.85;;;7.10;75.30;;;;;;5094152;28;20028;-69
2020/12/10 12:33:58;;;;;;;42.53;14.75;;;7.10;75.20;;;;;;5092575;28;20048;-71
2020/12/10 12:36:23;;;;;;;68.78;24.75;;;7.10;75.40;;;;;;5092852;28;20054;-70
2020/12/10 12:38:49;;;;;;;46.25;14.02;;;7.10;75.20;;;;;;5112681;28;20053;-70
2020/12/10 12:41:15;;;;;;;57.88;20.90;;;7.10;75.40;;;;;;5103387;28;20564;-70
2020/12/10 12:43:41;;;;;;;67.72;25.10;;;7.10;75.10;;;;;;5105301;28;20031;-70
2020/12/10 12:46:08;;;;;;;73.30;22.27;;;7.10;74.90;;;;;;5098932;28;20028;-69